Time;durP1;ratioP1;P1;durP2;ratioP2;P2;SDS_P1;SDS_P2;PMS_P1;PMS_P2;Temp;Humidity;BMP_temperature;BMP_pressure;BME280_temperature;BME280_humidity;BME280_pressure;Samples;Min_cycle;Max_cycle;Signal;HPM_P1;HPM_P2
2023/10/05 00:02:11;;;;;;;5.07;2.30;;;10.20;99.90;;;;;;4865529;29;20339;-75
2023/10/05 00:04:41;;;;;;;6.00;2.40;;;10.10;99.90;;;;;;4851909;29;20037;-76
2023/10/05 00:07:26;;;;;;;6.95;2.95;;;10.10;99.90;;;;;;4851132;29;20053;-75
2023/10/05 00:09:52;;;;;;;8.50;2.92;;;10.10;99.90;;;;;;4851658;29;20072;-75
2023/10/05 00:12:20;;;;;;;6.07;2.47;;;10.00;99.90;;;;;;4851135;29;20034;-77
2023/10/05 00:15:03;;;;;;;9.20;2.73;;;10.00;99.90;;;;;;4852021;29;20084;-77
2023/10/05 00:17:31;;;;;;;7.65;3.00;;;10.00;99.90;;;;;;4851698;29;20463;-78
2023/10/05 00:20:00;;;;;;;6.90;3.35;;;10.00;99.90;;;;;;4850656;29;20034;-75
2023/10/05 00:22:26;;;;;;;7.30;2.53;;;9.90;99.90;;;;;;4851121;29;20030;-77
2023/10/05 00:24:51;;;;;;;7.10;2.90;;;9.90;99.90;;;;;;4820331;29;20125;-77
2023/10/05 00:27:19;;;;;;;6.05;3.13;;;9.90;99.90;;;;;;4851058;29;20033;-76
2023/10/05 00:29:57;;;;;;;7.65;3.38;;;9.90;99.90;;;;;;4850621;29;20018;-75
2023/10/05 06:04:53;;;;;;;5.75;2.80;;;9.50;99.90;;;;;;5700071;23;20048;-75
2023/10/05 06:07:44;;;;;;;7.27;2.87;;;9.50;99.90;;;;;;4908548;29;20329;-76
2023/10/05 06:10:35;;;;;;;5.28;2.55;;;9.50;99.90;;;;;;4910205;29;20337;-76
2023/10/05 06:13:01;;;;;;;7.47;3.40;;;9.50;99.90;;;;;;4910398;29;20057;-75
2023/10/05 06:15:29;;;;;;;11.40;3.35;;;9.60;99.90;;;;;;4910492;29;20297;-77
2023/10/05 06:17:55;;;;;;;7.70;3.25;;;9.60;99.90;;;;;;4902415;29;20055;-76
2023/10/05 06:20:21;;;;;;;11.15;3.17;;;9.60;99.90;;;;;;4913173;29;20060;-74
2023/10/05 06:22:47;;;;;;;7.78;3.50;;;9.70;99.90;;;;;;4919410;29;20076;-74
2023/10/05 06:25:17;;;;;;;5.97;3.05;;;9.80;99.90;;;;;;4897206;29;20021;-75
2023/10/05 06:27:44;;;;;;;6.00;3.22;;;9.80;99.90;;;;;;4895001;29;20043;-75
2023/10/05 06:30:11;;;;;;;5.72;3.08;;;9.90;99.90;;;;;;4894552;29;20075;-75
2023/10/05 06:32:38;;;;;;;5.50;2.55;;;9.90;99.90;;;;;;4886683;29;20029;-75
2023/10/05 06:35:08;;;;;;;7.07;3.30;;;10.00;99.90;;;;;;4897827;29;20021;-76
2023/10/05 06:37:37;;;;;;;5.03;2.50;;;10.10;99.90;;;;;;4905655;29;20033;-75
2023/10/05 06:40:12;;;;;;;5.32;2.50;;;10.20;99.90;;;;;;4899978;29;20055;-75
2023/10/05 06:42:49;;;;;;;9.85;3.13;;;10.20;99.90;;;;;;4905337;29;20055;-75
2023/10/05 06:45:15;;;;;;;10.13;3.08;;;10.30;99.90;;;;;;4887856;29;20064;-75
2023/10/05 06:47:43;;;;;;;6.63;2.85;;;10.30;99.90;;;;;;4891695;29;20047;-75
2023/10/05 06:50:09;;;;;;;6.65;2.53;;;10.40;99.90;;;;;;4892504;29;20036;-76
2023/10/05 06:52:46;;;;;;;7.13;2.50;;;10.40;99.90;;;;;;4894990;29;20025;-76
2023/10/05 06:55:17;;;;;;;5.72;2.45;;;10.40;99.90;;;;;;4890650;29;20318;-77
2023/10/05 06:57:44;;;;;;;7.68;2.53;;;10.50;99.90;;;;;;4871550;29;20047;-76
2023/10/05 07:00:20;;;;;;;6.82;2.67;;;10.60;99.90;;;;;;4895096;29;20025;-75
2023/10/05 07:02:50;;;;;;;6.93;2.92;;;10.70;99.90;;;;;;4901682;29;20031;-76
2023/10/05 07:05:17;;;;;;;6.50;3.10;;;10.80;99.90;;;;;;4879757;29;20065;-76
2023/10/05 07:07:43;;;;;;;6.07;2.17;;;10.90;99.90;;;;;;4889774;29;20052;-76
2023/10/05 07:10:13;;;;;;;7.15;2.97;;;11.00;99.90;;;;;;4905629;29;20103;-76
2023/10/05 07:12:41;;;;;;;7.60;3.05;;;11.10;99.90;;;;;;4898607;29;20108;-75
2023/10/05 07:15:08;;;;;;;5.95;3.20;;;11.10;99.90;;;;;;4893996;29;20092;-75
2023/10/05 07:17:37;;;;;;;5.57;2.80;;;11.10;99.90;;;;;;4888257;29;20093;-75
2023/10/05 07:20:11;;;;;;;9.05;2.80;;;11.20;99.90;;;;;;4893964;29;20048;-74
2023/10/05 07:22:38;;;;;;;7.20;3.45;;;11.20;99.90;;;;;;4891527;29;20057;-75
2023/10/05 07:25:05;;;;;;;6.80;3.03;;;11.40;99.90;;;;;;4893092;29;20092;-75
2023/10/05 07:27:30;;;;;;;7.15;2.95;;;11.40;99.90;;;;;;4906878;29;20020;-76
2023/10/05 07:29:56;;;;;;;6.07;2.90;;;11.50;99.90;;;;;;4903009;29;20052;-75
2023/10/05 07:32:22;;;;;;;7.03;2.50;;;11.50;99.90;;;;;;4899794;29;20088;-75
2023/10/05 07:34:48;;;;;;;6.07;3.25;;;11.60;99.90;;;;;;4888148;29;20025;-77
2023/10/05 07:37:14;;;;;;;10.02;3.20;;;11.80;99.90;;;;;;4897428;29;20271;-75
2023/10/05 07:39:41;;;;;;;10.95;3.17;;;12.00;99.90;;;;;;4906925;29;20045;-76
2023/10/05 07:42:10;;;;;;;6.20;2.88;;;12.10;99.90;;;;;;4900916;29;20202;-76
2023/10/05 07:44:37;;;;;;;6.75;2.88;;;12.30;99.90;;;;;;4888346;29;20051;-75
2023/10/05 07:47:04;;;;;;;6.55;2.88;;;12.60;99.90;;;;;;4887714;29;20045;-76
2023/10/05 07:49:30;;;;;;;6.25;3.13;;;12.60;99.90;;;;;;4891756;29;20037;-76
2023/10/05 07:51:56;;;;;;;13.88;3.28;;;12.70;99.90;;;;;;4894471;29;20096;-76
2023/10/05 07:54:22;;;;;;;8.00;2.85;;;12.90;99.90;;;;;;4901011;29;20373;-74
2023/10/05 07:56:48;;;;;;;8.32;3.03;;;13.00;99.90;;;;;;4911015;29;20072;-75
2023/10/05 07:59:14;;;;;;;9.38;3.20;;;13.30;99.90;;;;;;4911837;29;20051;-75
2023/10/05 08:01:40;;;;;;;6.97;3.25;;;13.40;99.90;;;;;;4911065;29;20032;-75
2023/10/05 08:04:11;;;;;;;7.72;3.00;;;13.60;99.90;;;;;;4911361;29;20060;-75
2023/10/05 08:06:39;;;;;;;9.73;3.53;;;13.70;99.90;;;;;;4910347;29;20233;-75
2023/10/05 08:09:06;;;;;;;8.25;3.22;;;13.80;99.90;;;;;;4911346;29;20063;-75
2023/10/05 08:11:32;;;;;;;9.38;3.90;;;13.80;99.90;;;;;;4910414;29;20034;-76
2023/10/05 08:13:58;;;;;;;11.85;4.78;;;13.80;99.90;;;;;;4910936;29;20096;-75
2023/10/05 08:16:24;;;;;;;11.43;5.95;;;13.90;99.90;;;;;;4910054;29;20298;-75
2023/10/05 08:18:49;;;;;;;19.13;5.38;;;13.90;99.90;;;;;;4910298;29;20028;-74
2023/10/05 08:21:15;;;;;;;13.02;5.20;;;14.00;99.90;;;;;;4910884;29;20043;-75
2023/10/05 08:23:41;;;;;;;6.20;3.42;;;14.00;99.90;;;;;;4910364;29;20061;-75
2023/10/05 08:26:08;;;;;;;10.05;2.95;;;14.20;99.90;;;;;;4901052;29;20017;-75
2023/10/05 08:28:33;;;;;;;8.48;3.42;;;14.20;99.90;;;;;;4891525;29;20312;-76
2023/10/05 08:31:05;;;;;;;8.40;3.05;;;14.20;99.90;;;;;;4892242;29;20037;-74
2023/10/05 08:33:35;;;;;;;8.00;3.28;;;14.30;99.90;;;;;;4892396;29;20026;-75
2023/10/05 08:36:06;;;;;;;6.28;3.40;;;14.50;99.90;;;;;;4892297;29;20032;-76
2023/10/05 08:38:34;;;;;;;7.85;3.47;;;14.70;99.50;;;;;;4891992;29;20048;-75
2023/10/05 08:41:11;;;;;;;7.85;3.50;;;14.90;99.20;;;;;;4894734;29;20095;-75
2023/10/05 08:43:41;;;;;;;9.65;3.67;;;15.00;98.70;;;;;;4891352;29;20035;-76
2023/10/05 08:46:14;;;;;;;5.32;2.88;;;15.00;98.50;;;;;;4891874;29;20048;-75
2023/10/05 08:48:41;;;;;;;7.32;3.22;;;14.90;98.70;;;;;;4897591;29;20106;-76
2023/10/05 08:51:11;;;;;;;8.65;3.47;;;14.80;99.00;;;;;;4904910;29;20040;-75
2023/10/05 08:53:43;;;;;;;7.90;3.38;;;14.90;99.10;;;;;;4910050;29;20076;-75
2023/10/05 08:56:15;;;;;;;10.30;3.88;;;15.10;98.80;;;;;;4910334;29;20039;-75
2023/10/05 08:58:42;;;;;;;8.10;3.75;;;15.40;98.70;;;;;;4908884;29;20314;-76
2023/10/05 09:01:29;;;;;;;9.65;4.05;;;15.60;97.70;;;;;;4910547;29;20202;-75
2023/10/05 09:07:08;;;;;;;11.15;4.20;;;16.00;96.70;;;;;;4909490;29;20263;-75
2023/10/05 09:09:38;;;;;;;10.73;3.78;;;16.30;96.20;;;;;;4909467;29;20052;-74
2023/10/05 09:12:34;;;;;;;8.43;3.92;;;16.50;95.50;;;;;;4908618;29;20033;-74
2023/10/05 09:15:18;;;;;;;8.30;3.63;;;16.70;94.70;;;;;;4891429;29;20307;-74
2023/10/05 09:20:36;;;;;;;8.60;3.70;;;17.00;93.30;;;;;;4891417;29;20037;-74
2023/10/05 09:23:09;;;;;;;11.75;3.60;;;17.30;92.90;;;;;;4891218;29;20096;-75
2023/10/05 09:25:48;;;;;;;11.00;4.00;;;17.50;92.40;;;;;;4890964;29;20345;-75
2023/10/05 09:28:28;;;;;;;;;;;17.60;92.00;;;;;;4891563;29;20024;-75
2023/10/05 09:30:59;;;;;;;10.88;3.42;;;17.60;91.80;;;;;;4890813;29;19908;-74
2023/10/05 09:33:28;;;;;;;8.10;3.03;;;17.80;91.40;;;;;;4874315;29;20108;-75
2023/10/05 09:36:06;;;;;;;13.27;4.20;;;17.90;91.10;;;;;;4890352;29;20044;-75
2023/10/05 09:38:35;;;;;;;11.25;3.95;;;17.90;90.80;;;;;;4889878;29;20037;-74
2023/10/05 09:41:05;;;;;;;7.25;3.22;;;18.00;90.90;;;;;;4890975;29;20044;-74
2023/10/05 09:43:38;;;;;;;13.18;4.45;;;18.20;90.90;;;;;;4890801;29;20037;-74
2023/10/05 09:46:09;;;;;;;11.90;3.85;;;18.20;90.80;;;;;;4889531;29;20055;-76
2023/10/05 09:48:39;;;;;;;11.90;3.85;;;18.40;90.70;;;;;;4895641;29;20100;-74
2023/10/05 09:51:10;;;;;;;8.45;3.60;;;18.40;90.40;;;;;;4908085;29;20032;-74
2023/10/05 09:53:38;;;;;;;10.50;4.03;;;18.30;90.10;;;;;;4908668;29;20085;-74
2023/10/05 09:56:04;;;;;;;10.68;3.35;;;18.40;90.00;;;;;;4909692;29;20092;-74
2023/10/05 09:58:30;;;;;;;9.57;3.60;;;18.40;90.00;;;;;;4908055;29;20103;-75
2023/10/05 10:00:56;;;;;;;12.70;4.20;;;18.60;89.40;;;;;;4908878;29;20273;-75
2023/10/05 10:03:23;;;;;;;10.68;3.28;;;18.60;89.10;;;;;;4909340;29;20091;-74
2023/10/05 10:05:59;;;;;;;11.32;3.58;;;18.80;88.80;;;;;;4908885;29;20045;-74
2023/10/05 10:08:29;;;;;;;8.38;3.30;;;18.90;88.40;;;;;;4908311;29;20036;-74
2023/10/05 10:11:08;;;;;;;10.43;3.55;;;19.00;87.70;;;;;;4909970;29;20109;-76
2023/10/05 10:13:39;;;;;;;12.38;3.42;;;19.10;87.90;;;;;;4900590;29;20036;-73
2023/10/05 10:16:23;;;;;;;8.70;3.60;;;19.00;87.00;;;;;;4904322;29;20044;-73
2023/10/05 10:19:22;;;;;;;9.25;3.17;;;19.10;87.70;;;;;;4913286;29;20045;-75
2023/10/05 10:21:57;;;;;;;10.05;3.67;;;19.00;87.50;;;;;;4909108;29;20040;-74
2023/10/05 10:24:28;;;;;;;8.68;3.33;;;19.10;87.30;;;;;;4889506;29;20047;-75
2023/10/05 10:27:07;;;;;;;12.88;4.00;;;19.30;86.50;;;;;;4889448;29;20033;-74
2023/10/05 10:29:46;;;;;;;9.18;3.80;;;19.50;85.30;;;;;;4890787;29;20033;-73
2023/10/05 10:32:19;;;;;;;9.85;3.65;;;19.70;83.70;;;;;;4889674;29;20029;-75
2023/10/05 10:34:57;;;;;;;12.48;4.32;;;19.90;84.60;;;;;;4890161;29;20417;-75
2023/10/05 10:37:39;;;;;;;9.47;3.57;;;19.90;83.90;;;;;;4889732;29;20048;-74
2023/10/05 10:45:30;;;;;;;11.77;3.80;;;20.90;79.20;;;;;;4889576;29;20036;-73
2023/10/05 10:47:56;;;;;;;7.95;3.00;;;20.90;78.70;;;;;;4888298;29;20322;-74
2023/10/05 10:50:23;;;;;;;10.00;3.33;;;21.00;78.10;;;;;;4908096;29;20037;-73
2023/10/05 10:52:55;;;;;;;9.23;3.08;;;21.00;77.90;;;;;;4902603;29;20077;-75
2023/10/05 10:55:26;;;;;;;10.93;3.15;;;21.30;78.00;;;;;;4889555;29;20100;-75
2023/10/05 10:57:53;;;;;;;9.10;3.08;;;21.50;77.50;;;;;;4889316;29;20091;-74
2023/10/05 11:03:11;;;;;;;9.13;3.88;;;21.60;77.10;;;;;;4889431;29;20240;-75
2023/10/05 11:05:40;;;;;;;8.52;3.13;;;21.70;75.60;;;;;;4889363;29;20041;-73
2023/10/05 11:08:12;;;;;;;9.40;3.25;;;21.70;75.30;;;;;;4889214;29;20199;-73
2023/10/05 11:10:42;;;;;;;9.20;2.70;;;21.70;75.30;;;;;;4889499;29;20041;-76
2023/10/05 11:13:14;;;;;;;7.95;3.28;;;21.80;75.20;;;;;;4889336;29;20060;-74
2023/10/05 11:16:00;;;;;;;7.00;2.72;;;21.70;75.50;;;;;;4887612;29;20045;-73
2023/10/05 11:18:39;;;;;;;8.70;3.10;;;21.60;75.70;;;;;;4888951;29;20067;-77
2023/10/05 11:21:05;;;;;;;7.93;3.05;;;21.20;75.60;;;;;;4897692;29;20036;-74
2023/10/05 11:23:55;;;;;;;11.65;3.47;;;20.90;75.80;;;;;;4906489;29;20040;-75
2023/10/05 11:26:47;;;;;;;14.27;3.88;;;20.70;77.10;;;;;;4906207;29;20032;-74
2023/10/05 11:29:17;;;;;;;8.38;3.00;;;20.80;78.50;;;;;;4907847;29;20389;-74
2023/10/05 11:31:43;;;;;;;9.23;2.92;;;21.00;76.10;;;;;;4907488;29;20093;-74
2023/10/05 11:34:11;;;;;;;9.93;3.10;;;21.10;76.40;;;;;;4907851;29;20023;-73
2023/10/05 11:36:58;;;;;;;10.05;3.10;;;21.30;74.40;;;;;;4907683;29;20029;-80
2023/10/05 11:39:26;;;;;;;9.43;3.42;;;21.30;75.30;;;;;;4906798;29;20109;-75
2023/10/05 11:41:57;;;;;;;9.52;3.30;;;21.40;73.40;;;;;;4907495;29;20041;-75
2023/10/05 11:44:24;;;;;;;9.07;2.88;;;21.10;74.50;;;;;;4891454;29;20044;-75
2023/10/05 11:46:53;;;;;;;9.95;3.25;;;21.40;74.60;;;;;;4888630;29;20040;-74
2023/10/05 11:49:20;;;;;;;10.85;2.88;;;21.50;74.30;;;;;;4899870;29;20059;-76
2023/10/05 11:52:00;;;;;;;9.90;3.28;;;21.50;73.90;;;;;;4907520;29;20206;-75
2023/10/05 11:54:30;;;;;;;10.05;3.00;;;21.50;73.10;;;;;;4904010;29;20084;-74
2023/10/05 11:56:57;;;;;;;9.60;3.13;;;21.40;72.60;;;;;;4896367;29;20098;-74
2023/10/05 11:59:31;;;;;;;7.55;2.70;;;21.70;72.80;;;;;;4907603;29;20100;-73
2023/10/05 12:01:57;;;;;;;9.55;2.80;;;21.70;72.20;;;;;;4895468;29;20051;-73
2023/10/05 12:04:26;;;;;;;10.23;2.83;;;21.90;71.90;;;;;;4905107;29;20196;-75
2023/10/05 12:06:58;;;;;;;6.53;2.58;;;21.80;72.40;;;;;;4887128;29;20117;-74
2023/10/05 12:09:30;;;;;;;9.82;2.80;;;21.80;70.70;;;;;;4892642;29;20298;-75
2023/10/05 12:11:58;;;;;;;7.65;2.65;;;21.50;71.80;;;;;;4888669;29;20033;-74
2023/10/05 12:14:25;;;;;;;14.13;3.40;;;21.10;72.80;;;;;;4888475;29;20029;-74
2023/10/05 12:16:52;;;;;;;9.13;3.40;;;20.90;72.80;;;;;;4888310;29;20096;-75
2023/10/05 12:19:27;;;;;;;12.10;3.22;;;21.00;73.20;;;;;;4903029;29;20051;-77
2023/10/05 12:21:59;;;;;;;6.55;2.90;;;21.10;73.10;;;;;;4904910;29;20072;-76
2023/10/05 12:24:26;;;;;;;7.97;2.63;;;21.00;73.40;;;;;;4904615;29;20044;-76
2023/10/05 12:26:52;;;;;;;8.65;2.70;;;21.00;73.00;;;;;;4906833;29;20072;-76
2023/10/05 12:29:18;;;;;;;7.22;2.60;;;20.90;73.10;;;;;;4907133;29;20049;-75
2023/10/05 12:31:49;;;;;;;7.65;3.08;;;20.70;73.90;;;;;;4889907;29;20032;-75
2023/10/05 12:34:16;;;;;;;9.50;3.53;;;20.80;74.80;;;;;;4904333;29;20029;-75
2023/10/05 12:36:49;;;;;;;7.55;2.50;;;20.80;74.40;;;;;;4889186;29;20029;-75
2023/10/05 12:39:20;;;;;;;6.50;2.67;;;20.90;74.10;;;;;;4895794;29;20105;-75
2023/10/05 12:41:47;;;;;;;19.50;4.75;;;20.60;75.00;;;;;;4891466;29;20041;-76
2023/10/05 12:44:13;;;;;;;11.68;3.05;;;20.00;75.80;;;;;;4891673;29;20051;-76
2023/10/05 12:46:45;;;;;;;9.63;3.22;;;19.80;76.70;;;;;;4890986;29;20031;-74
2023/10/05 12:49:17;;;;;;;8.63;3.13;;;19.70;77.20;;;;;;4900912;29;20082;-78
2023/10/05 12:51:45;;;;;;;8.60;3.00;;;19.50;77.50;;;;;;4875067;29;20036;-75
2023/10/05 12:54:34;;;;;;;8.73;2.92;;;19.50;77.50;;;;;;4890315;29;20152;-75
2023/10/05 12:57:02;;;;;;;10.00;3.05;;;19.30;78.50;;;;;;4891015;29;20052;-75
2023/10/05 12:59:30;;;;;;;8.23;3.17;;;19.10;78.70;;;;;;4889823;29;20052;-75
2023/10/05 13:02:03;;;;;;;8.90;3.00;;;19.00;79.50;;;;;;4893301;29;20193;-78
2023/10/05 13:04:28;;;;;;;8.50;2.97;;;18.90;79.70;;;;;;4896984;29;20100;-76
2023/10/05 13:06:54;;;;;;;11.10;3.15;;;18.80;80.00;;;;;;4904517;29;20096;-76
2023/10/05 13:09:20;;;;;;;8.48;2.53;;;18.70;79.60;;;;;;4892350;29;20096;-77
2023/10/05 13:11:47;;;;;;;8.20;3.03;;;18.60;80.40;;;;;;4890057;29;20032;-77
2023/10/05 13:14:19;;;;;;;8.80;2.85;;;18.50;80.70;;;;;;4891017;29;20230;-77
2023/10/05 13:16:48;;;;;;;10.10;3.25;;;18.40;81.00;;;;;;4891411;29;20087;-76
2023/10/05 13:19:14;;;;;;;9.30;3.30;;;18.40;81.30;;;;;;4891001;29;20112;-76
2023/10/05 13:21:42;;;;;;;6.70;2.25;;;18.40;80.70;;;;;;4897204;29;20103;-75
2023/10/05 13:24:11;;;;;;;;;;;18.40;81.10;;;;;;4909006;29;20028;-76
2023/10/05 13:26:37;;;;;;;;;;;18.40;81.40;;;;;;4909415;29;19907;-77
2023/10/05 13:29:07;;;;;;;6.80;2.90;;;18.40;80.80;;;;;;4909381;29;19907;-76
2023/10/05 13:31:33;;;;;;;9.43;3.00;;;18.50;80.60;;;;;;4909853;29;20023;-78
2023/10/05 13:33:59;;;;;;;8.27;2.85;;;18.40;80.20;;;;;;4908440;29;20314;-78
2023/10/05 13:36:26;;;;;;;6.50;2.50;;;18.40;80.60;;;;;;4910174;29;20040;-79
2023/10/05 13:38:57;;;;;;;7.95;2.42;;;18.40;80.80;;;;;;4909191;29;20028;-77
2023/10/05 13:41:23;;;;;;;9.18;3.15;;;18.40;81.10;;;;;;4909757;29;20318;-78
2023/10/05 13:43:49;;;;;;;7.70;2.75;;;18.40;81.70;;;;;;4908181;29;20037;-78
2023/10/05 13:46:22;;;;;;;7.18;3.05;;;18.30;82.10;;;;;;4908262;29;20068;-77
2023/10/05 13:48:54;;;;;;;7.68;2.60;;;18.20;82.60;;;;;;4900280;29;20029;-78
2023/10/05 13:51:21;;;;;;;9.05;2.85;;;18.20;83.70;;;;;;4889784;29;20052;-76
2023/10/05 13:53:53;;;;;;;7.70;2.53;;;18.10;83.30;;;;;;4904870;29;20037;-77
2023/10/05 13:56:21;;;;;;;8.25;3.03;;;18.00;83.70;;;;;;4890505;29;20025;-77
2023/10/05 13:58:49;;;;;;;10.75;3.35;;;17.90;83.90;;;;;;4890072;29;20100;-78
2023/10/05 14:01:23;;;;;;;8.80;3.17;;;17.90;84.10;;;;;;4890359;29;20036;-77
2023/10/05 14:03:50;;;;;;;8.95;3.10;;;17.80;84.20;;;;;;4889308;29;20214;-77
2023/10/05 14:06:16;;;;;;;10.55;3.53;;;17.80;84.50;;;;;;4889165;29;20236;-78
2023/10/05 14:08:45;;;;;;;9.45;3.28;;;17.70;85.00;;;;;;4890322;29;20032;-77
2023/10/05 14:11:13;;;;;;;9.50;2.90;;;17.70;84.80;;;;;;4890584;29;20093;-78
2023/10/05 14:13:39;;;;;;;8.40;3.13;;;17.70;84.90;;;;;;4876702;29;20059;-76
2023/10/05 14:16:05;;;;;;;8.10;2.92;;;17.70;84.70;;;;;;4893122;29;20080;-77
2023/10/05 14:18:33;;;;;;;10.45;3.70;;;17.70;84.70;;;;;;4882748;29;20137;-75
2023/10/05 14:21:03;;;;;;;10.20;2.92;;;17.70;84.70;;;;;;4902543;29;20060;-75
2023/10/05 14:23:29;;;;;;;8.50;3.17;;;17.70;84.90;;;;;;4882314;29;20088;-78
2023/10/05 14:25:55;;;;;;;9.88;3.70;;;17.70;84.80;;;;;;4877789;29;20226;-76
2023/10/05 14:28:25;;;;;;;11.15;3.60;;;17.70;85.10;;;;;;4889925;29;20100;-76
2023/10/05 14:30:51;;;;;;;9.40;3.00;;;17.70;85.10;;;;;;4890151;29;20088;-79
2023/10/05 14:33:17;;;;;;;11.18;3.60;;;17.50;85.00;;;;;;4889984;29;20204;-76
2023/10/05 14:35:44;;;;;;;8.48;3.22;;;17.50;85.10;;;;;;4890025;29;20025;-76
2023/10/05 14:38:15;;;;;;;11.70;3.40;;;17.40;85.00;;;;;;4889459;29;20219;-76
2023/10/05 14:40:42;;;;;;;10.52;3.50;;;17.40;85.50;;;;;;4889903;29;20044;-77
2023/10/05 14:43:08;;;;;;;10.98;3.63;;;17.40;85.60;;;;;;4889469;29;20115;-77
2023/10/05 14:45:34;;;;;;;9.88;2.92;;;17.40;85.40;;;;;;4889940;29;20029;-77
2023/10/05 14:48:05;;;;;;;13.00;3.47;;;17.40;85.60;;;;;;4896664;29;20040;-78
2023/10/05 14:50:32;;;;;;;10.63;3.38;;;17.40;85.60;;;;;;4904715;29;20059;-77
2023/10/05 14:53:04;;;;;;;8.40;2.90;;;17.30;85.50;;;;;;4889301;29;20024;-78
2023/10/05 14:55:30;;;;;;;6.22;2.45;;;17.30;86.10;;;;;;4888605;29;20033;-76
2023/10/05 14:57:56;;;;;;;7.72;3.05;;;17.30;85.90;;;;;;4903570;29;20207;-77
2023/10/05 15:00:23;;;;;;;7.10;3.13;;;17.30;86.30;;;;;;4872769;29;20032;-78
2023/10/05 15:02:49;;;;;;;9.95;2.60;;;17.40;86.60;;;;;;4888514;29;20028;-78
2023/10/05 15:05:15;;;;;;;10.43;3.13;;;17.30;86.10;;;;;;4888537;29;20112;-76
2023/10/05 15:07:42;;;;;;;10.57;3.20;;;17.30;86.20;;;;;;4889217;29;20177;-77
2023/10/05 15:10:19;;;;;;;10.15;2.97;;;17.30;86.50;;;;;;4888711;29;20290;-77
2023/10/05 15:12:46;;;;;;;8.07;2.83;;;17.30;86.60;;;;;;4888404;29;20181;-77
2023/10/05 15:15:15;;;;;;;13.70;3.10;;;17.30;86.10;;;;;;4887707;29;20113;-76
2023/10/05 15:17:44;;;;;;;8.50;2.88;;;17.30;86.30;;;;;;4889342;29;20067;-78
2023/10/05 15:20:14;;;;;;;7.22;2.67;;;17.40;86.10;;;;;;4888661;29;20036;-77
2023/10/05 15:22:52;;;;;;;10.00;2.92;;;17.30;86.40;;;;;;4888217;29;20040;-77
2023/10/05 15:25:19;;;;;;;10.90;2.90;;;17.40;86.50;;;;;;4888068;29;20036;-76
2023/10/05 15:27:46;;;;;;;8.98;3.20;;;17.40;87.00;;;;;;4889398;29;20029;-76
2023/10/05 15:30:13;;;;;;;6.47;2.65;;;17.50;86.40;;;;;;4888491;29;20252;-77
2023/10/05 15:32:44;;;;;;;10.77;3.17;;;17.50;86.00;;;;;;4888044;29;20025;-76
2023/10/05 15:35:13;;;;;;;11.10;3.05;;;17.50;86.50;;;;;;4888648;29;20069;-78
2023/10/05 15:37:45;;;;;;;7.30;2.83;;;17.70;86.00;;;;;;4872459;29;20033;-77
2023/10/05 15:40:20;;;;;;;9.75;2.80;;;17.70;85.20;;;;;;4887620;29;20056;-78
2023/10/05 15:42:53;;;;;;;8.50;3.03;;;17.70;85.20;;;;;;4888073;29;20052;-76
2023/10/05 15:45:23;;;;;;;9.35;3.20;;;17.70;85.40;;;;;;4889031;29;20092;-76
2023/10/05 15:47:50;;;;;;;10.77;3.10;;;17.50;85.90;;;;;;4895807;29;20326;-77
2023/10/05 15:50:18;;;;;;;10.18;3.05;;;17.40;86.50;;;;;;4903406;29;20025;-78
2023/10/05 15:52:45;;;;;;;11.07;3.70;;;17.30;86.60;;;;;;4888983;29;20041;-77
2023/10/05 15:55:15;;;;;;;10.93;3.10;;;17.20;87.30;;;;;;4903162;29;20112;-78
2023/10/05 15:57:48;;;;;;;10.15;3.10;;;17.20;87.50;;;;;;4890598;29;20017;-78
2023/10/05 16:00:38;;;;;;;8.68;2.67;;;17.10;87.70;;;;;;4906067;29;20199;-76
2023/10/05 16:03:09;;;;;;;9.65;3.28;;;17.10;87.80;;;;;;4907195;29;20246;-79
2023/10/05 16:05:39;;;;;;;13.38;3.22;;;17.00;88.00;;;;;;4902935;29;20052;-78
2023/10/05 16:08:09;;;;;;;9.63;3.40;;;17.00;87.80;;;;;;4888182;29;20375;-79
2023/10/05 16:10:37;;;;;;;8.60;3.00;;;17.00;88.00;;;;;;4888444;29;20044;-79
2023/10/05 16:13:07;;;;;;;9.95;2.80;;;16.90;88.20;;;;;;4889976;29;20060;-78
2023/10/05 16:15:34;;;;;;;8.48;3.05;;;16.90;88.40;;;;;;4892593;29;20065;-79
2023/10/05 16:18:02;;;;;;;9.02;3.17;;;16.80;88.90;;;;;;4892123;29;20081;-76
2023/10/05 16:20:53;;;;;;;17.30;3.72;;;16.70;89.10;;;;;;4891577;29;20375;-77
2023/10/05 16:23:22;;;;;;;8.77;3.00;;;16.60;89.50;;;;;;4891895;29;20025;-77
2023/10/05 16:25:48;;;;;;;12.23;3.10;;;16.60;89.50;;;;;;4875706;29;20025;-78
2023/10/05 16:28:14;;;;;;;10.02;3.05;;;16.50;90.20;;;;;;4891795;29;20077;-78
2023/10/05 16:30:39;;;;;;;11.13;3.13;;;16.40;90.30;;;;;;4874845;29;20068;-76
2023/10/05 16:33:06;;;;;;;8.80;2.53;;;16.30;90.20;;;;;;4891730;29;20230;-78
2023/10/05 16:35:33;;;;;;;9.40;3.05;;;16.30;90.00;;;;;;4875958;29;20295;-78
2023/10/05 16:37:59;;;;;;;12.32;3.28;;;16.20;90.10;;;;;;4875156;29;20062;-76
2023/10/05 16:40:25;;;;;;;8.40;2.70;;;16.10;90.50;;;;;;4891613;29;20109;-76
2023/10/05 16:42:52;;;;;;;8.48;2.90;;;16.10;90.80;;;;;;4891911;29;20029;-76
2023/10/05 16:45:20;;;;;;;7.75;2.60;;;16.00;90.80;;;;;;4875010;29;20028;-76
2023/10/05 16:47:56;;;;;;;8.87;3.30;;;15.90;90.80;;;;;;4878356;29;20029;-79
2023/10/05 16:50:24;;;;;;;11.07;3.50;;;15.90;90.90;;;;;;4906404;29;20074;-76
2023/10/05 16:52:50;;;;;;;9.70;3.33;;;15.80;91.10;;;;;;4890409;29;20040;-76
2023/10/05 16:55:19;;;;;;;10.15;3.20;;;15.80;91.50;;;;;;4891120;29;20314;-77
2023/10/05 16:57:45;;;;;;;9.45;3.25;;;15.60;91.60;;;;;;4894538;29;20040;-75
2023/10/05 17:00:27;;;;;;;10.27;3.08;;;15.60;91.40;;;;;;4908903;29;20043;-77
2023/10/05 17:02:53;;;;;;;9.07;3.10;;;15.50;91.50;;;;;;4910599;29;20041;-77
2023/10/05 17:05:22;;;;;;;13.05;3.65;;;15.40;91.70;;;;;;4905458;29;20048;-76
2023/10/05 17:07:51;;;;;;;;;;;15.40;92.00;;;;;;4892213;29;20037;-76
2023/10/05 17:10:23;;;;;;;10.55;3.10;;;15.30;92.10;;;;;;4889663;29;19911;-79
2023/10/05 17:12:52;;;;;;;8.88;2.85;;;15.20;92.40;;;;;;4905869;29;20045;-78
2023/10/05 17:15:25;;;;;;;8.68;2.90;;;15.20;92.50;;;;;;4890909;29;20041;-79
2023/10/05 17:17:56;;;;;;;8.75;3.38;;;15.10;92.60;;;;;;4891599;29;20045;-79
2023/10/05 17:20:22;;;;;;;10.82;3.60;;;15.10;92.80;;;;;;4889784;29;20053;-78
2023/10/05 17:22:52;;;;;;;12.70;3.50;;;15.00;93.00;;;;;;4891437;29;20055;-78
2023/10/05 17:25:18;;;;;;;13.18;3.47;;;14.90;93.10;;;;;;4904377;29;20345;-77
2023/10/05 17:27:44;;;;;;;11.35;3.83;;;14.90;93.10;;;;;;4890696;29;20032;-78
2023/10/05 17:30:13;;;;;;;10.77;3.55;;;14.90;93.40;;;;;;4890320;29;20033;-77
2023/10/05 17:32:42;;;;;;;8.82;3.78;;;14.80;93.30;;;;;;4891948;29;20073;-77
2023/10/05 17:35:21;;;;;;;;;;;14.80;93.50;;;;;;4891746;29;20052;-79
2023/10/05 17:37:56;;;;;;;8.88;3.72;;;14.80;93.50;;;;;;4874761;29;19916;-78
2023/10/05 17:40:22;;;;;;;8.15;3.42;;;14.70;94.20;;;;;;4890435;29;20390;-78
2023/10/05 17:42:48;;;;;;;12.63;4.30;;;14.70;93.90;;;;;;4890764;29;20041;-80
2023/10/05 17:45:13;;;;;;;12.80;4.63;;;14.60;93.90;;;;;;4874186;29;20047;-79
2023/10/05 17:47:51;;;;;;;11.38;3.95;;;14.60;94.20;;;;;;4895343;29;20032;-75
2023/10/05 17:50:17;;;;;;;14.15;4.90;;;14.60;94.20;;;;;;4908827;29;20028;-79
2023/10/05 17:52:46;;;;;;;12.07;4.45;;;14.50;94.30;;;;;;4908301;29;20373;-78
2023/10/05 17:55:12;;;;;;;12.65;4.15;;;14.40;94.60;;;;;;4909083;29;20040;-78
2023/10/05 17:57:37;;;;;;;9.35;3.92;;;14.30;94.70;;;;;;4892593;29;20127;-76
2023/10/05 18:00:05;;;;;;;11.95;3.83;;;14.30;94.90;;;;;;4907724;29;20024;-76
2023/10/05 18:02:38;;;;;;;10.80;4.38;;;14.20;94.90;;;;;;4908837;29;20100;-77
2023/10/05 18:05:05;;;;;;;11.50;4.30;;;14.10;95.20;;;;;;4907611;29;20056;-78
2023/10/05 18:07:31;;;;;;;10.02;4.38;;;14.00;95.40;;;;;;4909521;29;20092;-77
2023/10/05 18:09:56;;;;;;;8.80;4.20;;;13.90;95.80;;;;;;4909021;29;20021;-77
2023/10/05 18:12:25;;;;;;;10.45;4.40;;;13.80;95.90;;;;;;4908477;29;20043;-77
2023/10/05 18:14:51;;;;;;;10.23;4.13;;;13.80;96.40;;;;;;4909154;29;20103;-76
2023/10/05 18:17:20;;;;;;;14.52;4.32;;;13.60;96.60;;;;;;4894111;29;20024;-76
2023/10/05 18:19:48;;;;;;;11.48;4.63;;;13.50;96.70;;;;;;4910520;29;20036;-75
2023/10/05 18:22:14;;;;;;;14.07;5.30;;;13.50;97.10;;;;;;4915050;29;20140;-75
2023/10/05 18:24:39;;;;;;;12.00;5.30;;;13.40;97.20;;;;;;4913726;29;20047;-76
2023/10/05 18:27:06;;;;;;;11.75;5.07;;;13.40;97.30;;;;;;4913017;29;20044;-78
2023/10/05 18:29:32;;;;;;;14.52;5.80;;;13.50;97.20;;;;;;4893373;29;20048;-76
2023/10/05 18:31:58;;;;;;;11.10;5.50;;;13.50;97.40;;;;;;4909159;29;20080;-77
2023/10/05 18:34:24;;;;;;;10.45;5.35;;;13.40;97.70;;;;;;4891208;29;20025;-78
2023/10/05 18:36:49;;;;;;;12.93;5.32;;;13.40;97.90;;;;;;4899110;29;20315;-76
2023/10/05 18:39:16;;;;;;;13.38;5.63;;;13.30;98.00;;;;;;4895193;29;20025;-78
2023/10/05 18:41:42;;;;;;;12.85;5.45;;;13.20;98.20;;;;;;4912560;29;20064;-76
2023/10/05 18:44:12;;;;;;;14.05;5.75;;;13.20;98.40;;;;;;4888322;29;20036;-76
2023/10/05 18:46:40;;;;;;;10.50;5.07;;;13.10;98.70;;;;;;4887243;29;20390;-76